createdAt,value
2022-08-27T00:01:13.935Z,8.48
2022-08-27T00:04:01.500Z,8.38
2022-08-27T00:06:49.031Z,8.00
2022-08-27T00:09:36.702Z,8.60
2022-08-27T00:12:24.192Z,8.93
2022-08-27T00:15:13.004Z,9.32
2022-08-27T00:18:07.356Z,8.93
2022-08-27T00:20:54.340Z,9.18
2022-08-27T00:23:42.187Z,8.93
2022-08-27T00:26:30.073Z,8.73
2022-08-27T00:29:18.013Z,8.48
2022-08-27T00:32:05.873Z,8.98
2022-08-27T00:34:54.636Z,9.73
2022-08-27T00:37:42.024Z,8.90
2022-08-27T00:40:29.536Z,9.13
2022-08-27T00:43:23.796Z,8.40
2022-08-27T00:46:19.977Z,8.85
2022-08-27T00:49:10.800Z,9.45
2022-08-27T00:52:03.719Z,9.35
2022-08-27T00:54:53.238Z,9.55
2022-08-27T00:57:42.331Z,9.40
2022-08-27T01:00:29.399Z,9.75
2022-08-27T01:03:17.368Z,9.40
2022-08-27T01:06:07.096Z,9.90
2022-08-27T01:09:00.020Z,9.75
2022-08-27T01:11:49.278Z,9.27
2022-08-27T01:14:37.165Z,9.40
2022-08-27T01:17:24.835Z,9.02
2022-08-27T01:20:17.628Z,9.80
2022-08-27T01:23:14.119Z,9.45
2022-08-27T01:26:06.843Z,9.02
2022-08-27T01:28:54.299Z,9.23
2022-08-27T01:31:41.249Z,9.13
2022-08-27T01:34:28.776Z,10.00
2022-08-27T01:37:17.371Z,10.25
2022-08-27T01:40:13.441Z,10.18
2022-08-27T01:43:02.972Z,9.80
2022-08-27T01:45:53.150Z,10.80
2022-08-27T01:48:40.169Z,11.52
2022-08-27T01:51:27.896Z,11.23
2022-08-27T01:54:15.409Z,10.60
2022-08-27T01:57:02.812Z,11.38
2022-08-27T01:59:51.518Z,11.32
2022-08-27T02:02:39.180Z,11.23
2022-08-27T02:05:27.325Z,11.32
2022-08-27T02:08:15.891Z,11.88
2022-08-27T02:11:03.583Z,11.77
2022-08-27T02:13:50.808Z,11.48
2022-08-27T02:16:41.284Z,12.10
2022-08-27T02:19:39.920Z,12.65
2022-08-27T02:22:26.967Z,11.70
2022-08-27T02:25:17.051Z,11.88
2022-08-27T02:28:05.900Z,11.55
2022-08-27T02:30:52.993Z,11.98
2022-08-27T02:33:41.941Z,12.32
2022-08-27T02:36:31.050Z,11.35
2022-08-27T02:39:18.385Z,12.32
2022-08-27T02:42:05.951Z,12.68
2022-08-27T02:44:54.355Z,12.98
2022-08-27T02:47:41.943Z,12.30
2022-08-27T02:50:30.401Z,13.02
2022-08-27T02:53:18.417Z,14.05
2022-08-27T02:56:05.554Z,13.57
2022-08-27T02:58:52.596Z,13.40
2022-08-27T03:01:40.201Z,12.52
2022-08-27T03:04:28.849Z,13.80
2022-08-27T03:07:19.027Z,13.60
2022-08-27T03:10:07.853Z,12.82
2022-08-27T03:12:55.301Z,12.65
2022-08-27T03:15:42.881Z,13.48
2022-08-27T03:18:30.166Z,13.65
2022-08-27T03:21:19.367Z,13.02
2022-08-27T03:24:11.415Z,13.98
2022-08-27T03:26:59.833Z,13.70
2022-08-27T03:29:47.021Z,14.43
2022-08-27T03:32:35.796Z,14.88
2022-08-27T03:35:23.635Z,15.50
2022-08-27T03:38:10.927Z,15.38
2022-08-27T03:40:59.806Z,15.35
2022-08-27T03:43:47.768Z,15.13
2022-08-27T03:46:35.225Z,15.40
2022-08-27T03:49:23.316Z,16.23
2022-08-27T03:52:11.180Z,13.88
2022-08-27T03:54:59.863Z,15.95
2022-08-27T03:57:48.545Z,16.33
2022-08-27T04:00:35.865Z,16.00
2022-08-27T04:03:23.759Z,15.98
2022-08-27T04:06:11.096Z,16.85
2022-08-27T04:08:58.575Z,16.17
2022-08-27T04:11:46.001Z,16.65
2022-08-27T04:14:36.103Z,16.38
2022-08-27T04:17:23.454Z,15.05
2022-08-27T04:20:33.905Z,15.75
2022-08-27T04:23:20.088Z,15.40
2022-08-27T04:26:07.881Z,16.58
2022-08-27T04:28:55.379Z,15.60
2022-08-27T04:31:44.277Z,15.50
2022-08-27T04:34:31.951Z,15.02
2022-08-27T04:37:23.289Z,16.08
2022-08-27T04:40:11.516Z,15.05
2022-08-27T04:43:04.787Z,14.70
2022-08-27T04:45:52.305Z,15.77
2022-08-27T04:48:41.146Z,16.10
2022-08-27T04:51:29.428Z,14.43
2022-08-27T04:54:17.187Z,16.05
2022-08-27T04:57:06.252Z,15.02
2022-08-27T04:59:54.520Z,15.68
2022-08-27T05:02:41.612Z,14.35
2022-08-27T05:05:30.390Z,15.20
2022-08-27T05:08:18.343Z,15.57
2022-08-27T05:11:08.746Z,15.93
2022-08-27T05:13:56.070Z,15.90
2022-08-27T05:16:43.660Z,14.73
2022-08-27T05:19:40.216Z,15.15
2022-08-27T05:22:28.969Z,15.05
2022-08-27T05:25:16.283Z,14.85
2022-08-27T05:28:03.791Z,15.20
2022-08-27T05:30:55.840Z,15.68
2022-08-27T05:33:44.652Z,13.55
2022-08-27T05:36:34.696Z,12.93
2022-08-27T05:39:23.715Z,10.73
2022-08-27T05:42:12.452Z,10.45
2022-08-27T05:45:00.142Z,10.48
2022-08-27T05:47:47.283Z,10.27
2022-08-27T05:50:34.639Z,8.70
2022-08-27T05:53:22.200Z,8.57
2022-08-27T05:56:15.200Z,8.35
2022-08-27T05:59:19.868Z,8.35
2022-08-27T06:02:07.478Z,7.95
2022-08-27T06:04:55.148Z,8.75
2022-08-27T06:07:42.139Z,7.85
2022-08-27T06:10:29.560Z,7.93
2022-08-27T06:13:18.024Z,7.70
2022-08-27T06:16:07.166Z,8.15
2022-08-27T06:18:55.136Z,7.80
2022-08-27T06:21:43.076Z,8.10
2022-08-27T06:24:30.597Z,7.78
2022-08-27T06:27:20.411Z,9.20
2022-08-27T06:30:12.708Z,8.68
2022-08-27T06:33:01.836Z,9.10
2022-08-27T06:35:49.130Z,8.48
2022-08-27T06:38:36.784Z,8.15
2022-08-27T06:41:26.631Z,8.65
2022-08-27T06:44:13.817Z,8.88
2022-08-27T06:47:10.089Z,8.60
2022-08-27T06:49:58.456Z,9.63
2022-08-27T06:52:45.439Z,9.95
2022-08-27T06:55:37.103Z,8.52
2022-08-27T06:58:24.507Z,9.35
2022-08-27T07:01:16.712Z,9.43
2022-08-27T07:04:07.617Z,8.82
2022-08-27T07:06:55.201Z,9.02
2022-08-27T07:09:42.504Z,9.27
2022-08-27T07:12:30.412Z,9.50
2022-08-27T07:15:18.641Z,10.05
2022-08-27T07:18:09.771Z,11.05
2022-08-27T07:21:00.393Z,9.82
2022-08-27T07:23:49.072Z,9.38
2022-08-27T07:26:38.692Z,8.57
2022-08-27T07:29:29.191Z,10.35
2022-08-27T07:32:18.995Z,8.48
2022-08-27T07:35:09.477Z,9.75
2022-08-27T07:37:58.371Z,8.82
2022-08-27T07:40:45.437Z,9.73
2022-08-27T07:43:50.182Z,8.88
2022-08-27T07:46:47.425Z,8.23
2022-08-27T07:49:36.339Z,8.85
2022-08-27T07:52:26.473Z,8.32
2022-08-27T07:55:16.161Z,7.97
2022-08-27T07:58:03.608Z,8.75
2022-08-27T08:00:57.428Z,9.05
2022-08-27T08:03:45.328Z,6.85
2022-08-27T08:06:32.564Z,7.70
2022-08-27T08:09:22.178Z,6.35
2022-08-27T08:12:10.757Z,5.97
2022-08-27T08:14:58.539Z,6.85
2022-08-27T08:17:46.191Z,6.18
2022-08-27T08:20:56.566Z,6.78
2022-08-27T08:23:42.230Z,5.95
2022-08-27T08:26:29.884Z,6.45
2022-08-27T08:29:18.616Z,6.70
2022-08-27T08:32:07.351Z,6.45
2022-08-27T08:34:54.523Z,6.68
2022-08-27T08:37:44.352Z,6.75
2022-08-27T08:40:35.065Z,6.63
2022-08-27T08:43:35.731Z,6.25
2022-08-27T08:46:34.234Z,6.30
2022-08-27T08:49:34.704Z,6.20
2022-08-27T08:52:32.177Z,6.32
2022-08-27T08:55:47.752Z,6.07
2022-08-27T08:58:40.559Z,5.90
2022-08-27T09:01:29.091Z,6.45
2022-08-27T09:04:16.258Z,6.88
2022-08-27T09:07:08.615Z,6.80
2022-08-27T09:10:04.140Z,6.20
2022-08-27T09:12:53.979Z,6.47
2022-08-27T09:15:41.900Z,7.18
2022-08-27T09:18:31.430Z,6.75
2022-08-27T09:21:33.197Z,8.02
2022-08-27T09:24:28.819Z,7.05
2022-08-27T09:27:16.589Z,7.68
2022-08-27T09:30:09.357Z,7.30
2022-08-27T09:32:59.599Z,6.80
2022-08-27T09:35:48.207Z,7.25
2022-08-27T09:38:36.590Z,7.70
2022-08-27T09:41:27.041Z,7.57
2022-08-27T09:44:17.751Z,7.10
2022-08-27T09:47:05.149Z,7.28
2022-08-27T09:50:07.415Z,8.25
2022-08-27T09:52:59.156Z,8.02
2022-08-27T09:55:48.918Z,7.53
2022-08-27T09:58:50.753Z,7.80
2022-08-27T10:01:51.219Z,7.60
2022-08-27T10:04:50.598Z,6.90
2022-08-27T10:07:52.347Z,6.82
2022-08-27T10:10:47.848Z,5.43
2022-08-27T10:13:41.638Z,5.63
2022-08-27T10:16:52.738Z,5.72
2022-08-27T10:19:52.376Z,5.68
2022-08-27T10:22:45.920Z,5.82
2022-08-27T10:25:42.381Z,5.32
2022-08-27T10:28:45.589Z,5.72
2022-08-27T10:31:40.127Z,6.03
2022-08-27T10:34:39.310Z,5.53
2022-08-27T10:37:41.336Z,5.43
2022-08-27T10:40:35.207Z,5.28
2022-08-27T10:43:53.844Z,5.60
2022-08-27T10:46:54.666Z,4.80
2022-08-27T10:49:50.367Z,4.82
2022-08-27T10:52:44.059Z,5.32
2022-08-27T10:55:33.669Z,4.90
2022-08-27T10:58:36.703Z,4.70
2022-08-27T11:01:33.702Z,4.78
2022-08-27T11:04:26.108Z,4.53
2022-08-27T11:07:19.865Z,4.80
2022-08-27T11:10:12.523Z,4.55
2022-08-27T11:13:04.628Z,4.75
2022-08-27T11:15:55.952Z,4.70
2022-08-27T11:18:50.808Z,4.90
2022-08-27T11:21:44.737Z,4.90
2022-08-27T11:24:39.903Z,4.50
2022-08-27T11:27:31.825Z,4.65
2022-08-27T11:30:24.313Z,5.10
2022-08-27T11:33:18.652Z,4.85
2022-08-27T11:36:37.475Z,4.68
2022-08-27T11:39:36.160Z,5.07
2022-08-27T11:42:36.080Z,4.95
2022-08-27T11:45:30.848Z,4.40
2022-08-27T11:48:22.854Z,5.00
2022-08-27T11:51:16.017Z,4.75
2022-08-27T11:54:08.296Z,4.75
2022-08-27T11:56:55.676Z,4.85
2022-08-27T11:59:43.604Z,4.50
2022-08-27T12:02:30.980Z,4.53
2022-08-27T12:05:26.881Z,4.35
2022-08-27T12:08:30.052Z,3.97
2022-08-27T12:11:40.429Z,4.47
2022-08-27T12:14:43.081Z,4.10
2022-08-27T12:17:39.157Z,4.03
2022-08-27T12:20:40.037Z,4.20
2022-08-27T12:23:43.864Z,4.30
2022-08-27T12:26:34.481Z,3.90
2022-08-27T12:29:29.452Z,3.60
2022-08-27T12:32:27.223Z,3.58
2022-08-27T12:35:18.188Z,3.53
2022-08-27T12:38:14.176Z,3.95
2022-08-27T12:41:09.140Z,3.58
2022-08-27T12:44:07.863Z,3.55
2022-08-27T12:47:01.976Z,3.30
2022-08-27T12:49:56.380Z,3.80
2022-08-27T12:53:06.200Z,4.50
2022-08-27T12:56:03.702Z,3.85
2022-08-27T12:59:01.747Z,3.70
2022-08-27T13:01:59.807Z,4.28
2022-08-27T13:04:48.032Z,4.25
2022-08-27T13:07:42.381Z,4.55
2022-08-27T13:10:31.428Z,4.60
2022-08-27T13:13:21.532Z,4.40
2022-08-27T13:16:10.506Z,3.95
2022-08-27T13:18:57.514Z,4.80
2022-08-27T13:21:49.662Z,4.30
2022-08-27T13:24:52.424Z,4.80
2022-08-27T13:27:39.723Z,5.60
2022-08-27T13:30:36.003Z,4.32
2022-08-27T13:33:27.839Z,4.88
2022-08-27T13:36:15.161Z,5.18
2022-08-27T13:39:04.639Z,4.80
2022-08-27T13:41:52.444Z,4.60
2022-08-27T13:44:42.060Z,4.40
2022-08-27T13:47:45.266Z,4.47
2022-08-27T13:50:36.020Z,5.22
2022-08-27T13:53:45.047Z,4.18
2022-08-27T13:56:34.932Z,4.78
2022-08-27T13:59:26.569Z,4.07
2022-08-27T14:02:22.874Z,4.25
2022-08-27T14:05:13.851Z,3.78
2022-08-27T14:08:11.865Z,4.22
2022-08-27T14:11:02.152Z,4.00
2022-08-27T14:13:50.589Z,4.18
2022-08-27T14:16:39.776Z,4.50
2022-08-27T14:19:29.231Z,4.15
2022-08-27T14:22:23.839Z,3.92
2022-08-27T14:25:13.264Z,4.05
2022-08-27T14:28:00.343Z,3.65
2022-08-27T14:30:50.081Z,3.92
2022-08-27T14:33:39.634Z,3.38
2022-08-27T14:36:30.371Z,4.05
2022-08-27T14:39:17.543Z,3.80
2022-08-27T14:42:09.452Z,4.53
2022-08-27T14:44:56.737Z,3.60
2022-08-27T14:47:45.071Z,4.05
2022-08-27T14:50:32.317Z,3.88
2022-08-27T14:53:19.945Z,4.13
2022-08-27T14:56:07.601Z,4.40
2022-08-27T14:58:56.073Z,3.80
2022-08-27T15:01:44.202Z,4.20
2022-08-27T15:04:32.190Z,4.45
2022-08-27T15:07:20.333Z,3.80
2022-08-27T15:10:11.026Z,3.70
2022-08-27T15:12:58.346Z,4.32
2022-08-27T15:15:47.248Z,4.38
2022-08-27T15:18:34.515Z,4.50
2022-08-27T15:21:22.517Z,4.88
2022-08-27T15:24:16.944Z,4.65
2022-08-27T15:27:04.080Z,5.43
2022-08-27T15:29:51.734Z,5.30
2022-08-27T15:32:43.523Z,5.63
2022-08-27T15:35:30.871Z,5.78
2022-08-27T15:38:18.252Z,5.85
2022-08-27T15:41:05.517Z,17.33
2022-08-27T15:43:52.848Z,10.07
2022-08-27T15:46:41.226Z,8.02
2022-08-27T15:49:29.886Z,5.70
2022-08-27T15:52:20.469Z,6.68
2022-08-27T15:55:14.933Z,6.68
2022-08-27T15:58:02.355Z,5.63
2022-08-27T16:00:50.356Z,4.95
2022-08-27T16:03:49.998Z,5.97
2022-08-27T16:06:38.762Z,5.80
2022-08-27T16:09:26.016Z,5.63
2022-08-27T16:12:13.409Z,5.30
2022-08-27T16:15:15.454Z,5.15
2022-08-27T16:18:04.340Z,5.13
2022-08-27T16:20:51.721Z,5.00
2022-08-27T16:23:40.128Z,4.38
2022-08-27T16:26:27.808Z,4.43
2022-08-27T16:29:15.718Z,4.72
2022-08-27T16:32:03.631Z,4.55
2022-08-27T16:34:55.724Z,5.32
2022-08-27T16:37:43.566Z,4.63
2022-08-27T16:40:33.532Z,4.35
2022-08-27T16:43:23.357Z,4.38
2022-08-27T16:46:11.077Z,4.30
2022-08-27T16:49:15.954Z,4.60
2022-08-27T16:52:04.014Z,4.15
2022-08-27T16:54:51.417Z,3.28
2022-08-27T16:57:40.277Z,3.40
2022-08-27T17:00:29.936Z,3.28
2022-08-27T17:03:18.695Z,3.10
2022-08-27T17:06:06.148Z,2.75
2022-08-27T17:08:57.519Z,3.47
2022-08-27T17:11:50.579Z,3.03
2022-08-27T17:14:39.131Z,2.90
2022-08-27T17:17:26.178Z,3.47
2022-08-27T17:20:15.104Z,3.10
2022-08-27T17:23:03.658Z,2.70
2022-08-27T17:25:50.927Z,2.70
2022-08-27T17:28:40.677Z,3.20
2022-08-27T17:31:32.802Z,3.35
2022-08-27T17:34:24.739Z,3.53
2022-08-27T17:37:12.239Z,3.53
2022-08-27T17:40:00.060Z,3.70
2022-08-27T17:42:47.169Z,3.72
2022-08-27T17:45:34.525Z,3.50
2022-08-27T17:48:26.536Z,3.65
2022-08-27T17:51:14.542Z,3.63
2022-08-27T17:54:02.031Z,3.75
2022-08-27T17:56:49.309Z,3.67
2022-08-27T17:59:36.641Z,3.50
2022-08-27T18:02:28.893Z,3.97
2022-08-27T18:05:19.961Z,4.13
2022-08-27T18:08:07.013Z,3.85
2022-08-27T18:10:54.319Z,4.30
2022-08-27T18:13:41.768Z,3.97
2022-08-27T18:16:29.392Z,3.78
2022-08-27T18:19:16.595Z,3.40
2022-08-27T18:22:05.309Z,3.42
2022-08-27T18:24:52.549Z,3.00
2022-08-27T18:27:43.382Z,3.05
2022-08-27T18:30:31.463Z,2.95
2022-08-27T18:33:18.641Z,2.80
2022-08-27T18:36:06.526Z,2.90
2022-08-27T18:38:55.007Z,2.90
2022-08-27T18:41:42.562Z,2.63
2022-08-27T18:44:30.805Z,2.97
2022-08-27T18:47:18.127Z,2.80
2022-08-27T18:50:06.650Z,3.03
2022-08-27T18:52:56.555Z,2.63
2022-08-27T18:55:45.879Z,2.30
2022-08-27T18:58:33.283Z,2.25
2022-08-27T19:01:25.581Z,1.90
2022-08-27T19:04:13.731Z,2.17
2022-08-27T19:07:00.835Z,2.80
2022-08-27T19:09:48.332Z,2.30
2022-08-27T19:12:36.887Z,2.00
2022-08-27T19:15:24.151Z,2.20
2022-08-27T19:18:12.017Z,2.00
2022-08-27T19:20:59.486Z,1.90
2022-08-27T19:23:47.879Z,2.35
2022-08-27T19:26:35.498Z,2.30
2022-08-27T19:29:24.163Z,2.28
2022-08-27T19:32:11.397Z,2.10
2022-08-27T19:34:58.678Z,2.05
2022-08-27T19:37:53.052Z,2.38
2022-08-27T19:40:40.720Z,2.47
2022-08-27T19:43:27.785Z,2.40
2022-08-27T19:46:18.825Z,2.58
2022-08-27T19:49:06.091Z,2.35
2022-08-27T19:51:53.469Z,2.60
2022-08-27T19:54:56.831Z,2.75
2022-08-27T19:57:48.504Z,2.88
2022-08-27T20:00:36.075Z,2.85
2022-08-27T20:03:24.487Z,2.85
2022-08-27T20:06:11.727Z,3.10
2022-08-27T20:08:59.201Z,2.85
2022-08-27T20:11:47.524Z,3.30
2022-08-27T20:14:34.731Z,3.17
2022-08-27T20:17:25.973Z,2.70
2022-08-27T20:20:16.361Z,2.80
2022-08-27T20:23:05.097Z,3.08
2022-08-27T20:25:56.704Z,3.17
2022-08-27T20:28:47.963Z,3.20
2022-08-27T20:31:35.317Z,3.83
2022-08-27T20:34:23.505Z,3.70
2022-08-27T20:37:18.356Z,3.20
2022-08-27T20:40:07.518Z,3.67
2022-08-27T20:42:55.489Z,3.50
2022-08-27T20:45:43.432Z,3.35
2022-08-27T20:48:30.761Z,3.67
2022-08-27T20:51:18.015Z,3.78
2022-08-27T20:54:06.705Z,3.40
2022-08-27T20:56:53.827Z,3.72
2022-08-27T20:59:58.946Z,3.90
2022-08-27T21:02:46.276Z,3.95
2022-08-27T21:05:35.642Z,4.00
2022-08-27T21:08:23.315Z,4.15
2022-08-27T21:11:14.462Z,4.57
2022-08-27T21:14:01.422Z,4.72
2022-08-27T21:16:48.788Z,4.75
2022-08-27T21:19:38.021Z,4.28
2022-08-27T21:22:25.654Z,5.03
2022-08-27T21:25:14.591Z,4.93
2022-08-27T21:28:03.933Z,4.78
2022-08-27T21:30:50.943Z,4.63
2022-08-27T21:33:39.551Z,4.95
2022-08-27T21:36:27.049Z,5.32
2022-08-27T21:39:14.701Z,5.40
2022-08-27T21:42:01.771Z,5.38
2022-08-27T21:44:50.577Z,5.35
2022-08-27T21:47:38.908Z,6.05
2022-08-27T21:50:27.043Z,5.85
2022-08-27T21:53:14.285Z,5.38
2022-08-27T21:56:01.762Z,5.72
2022-08-27T21:58:49.099Z,5.80
2022-08-27T22:01:37.750Z,5.60
2022-08-27T22:04:24.807Z,5.95
2022-08-27T22:07:17.158Z,6.00
2022-08-27T22:10:05.858Z,6.30
2022-08-27T22:12:53.083Z,6.85
2022-08-27T22:15:46.343Z,6.70
2022-08-27T22:18:35.205Z,6.22
2022-08-27T22:21:26.745Z,6.32
2022-08-27T22:24:14.320Z,6.40
2022-08-27T22:27:01.737Z,7.10
2022-08-27T22:29:49.178Z,6.70
2022-08-27T22:32:36.716Z,6.50
2022-08-27T22:35:27.558Z,7.10
2022-08-27T22:38:16.266Z,6.90
2022-08-27T22:41:03.820Z,6.95
2022-08-27T22:43:50.822Z,7.10
2022-08-27T22:46:43.760Z,6.85
2022-08-27T22:49:31.245Z,7.10
2022-08-27T22:52:19.738Z,7.30
2022-08-27T22:55:12.092Z,6.80
2022-08-27T22:58:01.294Z,7.95
2022-08-27T23:00:52.544Z,7.13
2022-08-27T23:03:40.333Z,8.13
2022-08-27T23:06:27.592Z,7.35
2022-08-27T23:09:16.078Z,7.95
2022-08-27T23:12:04.493Z,7.85
2022-08-27T23:14:51.705Z,8.20
2022-08-27T23:17:39.055Z,8.07
2022-08-27T23:20:27.084Z,7.72
2022-08-27T23:23:14.326Z,7.70
2022-08-27T23:26:20.717Z,7.10
2022-08-27T23:29:08.269Z,7.80
2022-08-27T23:31:58.396Z,8.30
2022-08-27T23:34:45.654Z,8.18
2022-08-27T23:37:33.429Z,7.65
2022-08-27T23:40:21.897Z,7.38
2022-08-27T23:43:10.709Z,7.30
2022-08-27T23:45:57.971Z,7.70
2022-08-27T23:48:45.243Z,7.43
2022-08-27T23:51:33.626Z,7.88
2022-08-27T23:54:21.686Z,8.05
2022-08-27T23:57:08.787Z,7.85
2022-08-27T23:59:57.789Z,7.88
